sensor_id;sensor_type;location;lat;lon;timestamp;pressure;altitude;pressure_sealevel;temperature;humidity
15272;BME280;7737;51.578;7.268;2023-02-20T00:02:18;63419.03;;;-143.17;100.00
15272;BME280;7737;51.578;7.268;2023-02-20T00:05:45;63419.03;;;-143.17;100.00
15272;BME280;7737;51.578;7.268;2023-02-20T00:09:10;63419.03;;;-143.17;100.00
15272;BME280;7737;51.578;7.268;2023-02-20T00:12:35;63419.03;;;-143.17;100.00
15272;BME280;7737;51.578;7.268;2023-02-20T00:16:01;63419.03;;;-143.17;100.00
15272;BME280;7737;51.578;7.268;2023-02-20T00:19:26;63419.03;;;-143.17;100.00
15272;BME280;7737;51.578;7.268;2023-02-20T00:22:53;63419.03;;;-143.17;100.00
15272;BME280;7737;51.578;7.268;2023-02-20T00:26:19;63419.03;;;-143.17;100.00
15272;BME280;7737;51.578;7.268;2023-02-20T00:29:44;63419.03;;;-143.17;100.00
15272;BME280;7737;51.578;7.268;2023-02-20T00:33:10;63419.03;;;-143.17;100.00
15272;BME280;7737;51.578;7.268;2023-02-20T00:36:35;63419.03;;;-143.17;100.00
15272;BME280;7737;51.578;7.268;2023-02-20T00:40:01;63419.03;;;-143.17;100.00
15272;BME280;7737;51.578;7.268;2023-02-20T00:43:26;63419.03;;;-143.17;100.00
15272;BME280;7737;51.578;7.268;2023-02-20T00:46:52;63419.03;;;-143.17;100.00
15272;BME280;7737;51.578;7.268;2023-02-20T00:50:17;63419.03;;;-143.17;100.00
15272;BME280;7737;51.578;7.268;2023-02-20T00:53:42;63419.03;;;-143.17;100.00
15272;BME280;7737;51.578;7.268;2023-02-20T00:57:08;63419.03;;;-143.17;100.00
15272;BME280;7737;51.578;7.268;2023-02-20T01:00:33;63419.03;;;-143.17;100.00
15272;BME280;7737;51.578;7.268;2023-02-20T01:03:58;63419.03;;;-143.17;100.00
15272;BME280;7737;51.578;7.268;2023-02-20T01:07:23;63419.03;;;-143.17;100.00
15272;BME280;7737;51.578;7.268;2023-02-20T01:10:48;63419.03;;;-143.17;100.00
15272;BME280;7737;51.578;7.268;2023-02-20T01:14:15;63419.03;;;-143.17;100.00
15272;BME280;7737;51.578;7.268;2023-02-20T01:17:43;63419.03;;;-143.17;100.00
15272;BME280;7737;51.578;7.268;2023-02-20T01:21:09;63419.03;;;-143.17;100.00
15272;BME280;7737;51.578;7.268;2023-02-20T01:24:34;63419.03;;;-143.17;100.00
15272;BME280;7737;51.578;7.268;2023-02-20T01:27:59;63419.03;;;-143.17;100.00
15272;BME280;7737;51.578;7.268;2023-02-20T01:31:26;63419.03;;;-143.17;100.00
15272;BME280;7737;51.578;7.268;2023-02-20T01:34:51;63419.03;;;-143.17;100.00
15272;BME280;7737;51.578;7.268;2023-02-20T01:38:16;63419.03;;;-143.17;100.00
15272;BME280;7737;51.578;7.268;2023-02-20T01:41:44;63419.03;;;-143.17;100.00
15272;BME280;7737;51.578;7.268;2023-02-20T01:45:16;63419.03;;;-143.17;100.00
15272;BME280;7737;51.578;7.268;2023-02-20T01:48:43;63419.03;;;-143.17;100.00
15272;BME280;7737;51.578;7.268;2023-02-20T01:52:09;63419.03;;;-143.17;100.00
15272;BME280;7737;51.578;7.268;2023-02-20T01:55:37;63419.03;;;-143.17;100.00
15272;BME280;7737;51.578;7.268;2023-02-20T01:59:06;63419.03;;;-143.17;100.00
15272;BME280;7737;51.578;7.268;2023-02-20T02:02:33;63419.03;;;-143.17;100.00
15272;BME280;7737;51.578;7.268;2023-02-20T02:06:02;63419.03;;;-143.17;100.00
15272;BME280;7737;51.578;7.268;2023-02-20T02:08:30;101960.03;;;6.57;100.00
15272;BME280;7737;51.578;7.268;2023-02-20T02:11:58;63419.03;;;-143.17;100.00
15272;BME280;7737;51.578;7.268;2023-02-20T02:15:23;63419.03;;;-143.17;100.00
15272;BME280;7737;51.578;7.268;2023-02-20T02:18:58;63419.03;;;-143.17;100.00
15272;BME280;7737;51.578;7.268;2023-02-20T02:26:53;63419.03;;;-143.17;100.00
15272;BME280;7737;51.578;7.268;2023-02-20T02:35:17;63419.03;;;-143.17;100.00
15272;BME280;7737;51.578;7.268;2023-02-20T02:38:55;63419.03;;;-143.17;100.00
15272;BME280;7737;51.578;7.268;2023-02-20T02:42:32;63419.03;;;-143.17;100.00
15272;BME280;7737;51.578;7.268;2023-02-20T02:46:08;63419.03;;;-143.17;100.00
15272;BME280;7737;51.578;7.268;2023-02-20T02:49:40;63419.03;;;-143.17;100.00
15272;BME280;7737;51.578;7.268;2023-02-20T02:53:09;63419.03;;;-143.17;100.00
15272;BME280;7737;51.578;7.268;2023-02-20T02:56:35;63419.03;;;-143.17;100.00
15272;BME280;7737;51.578;7.268;2023-02-20T03:00:02;63419.03;;;-143.17;100.00
15272;BME280;7737;51.578;7.268;2023-02-20T03:03:31;63419.03;;;-143.17;100.00
15272;BME280;7737;51.578;7.268;2023-02-20T03:07:02;63419.03;;;-143.17;100.00
15272;BME280;7737;51.578;7.268;2023-02-20T03:10:31;63419.03;;;-143.17;100.00
15272;BME280;7737;51.578;7.268;2023-02-20T03:13:58;63419.03;;;-143.17;100.00
15272;BME280;7737;51.578;7.268;2023-02-20T03:17:48;63419.03;;;-143.17;100.00
15272;BME280;7737;51.578;7.268;2023-02-20T03:21:19;63419.03;;;-143.17;100.00
15272;BME280;7737;51.578;7.268;2023-02-20T03:24:56;63419.03;;;-143.17;100.00
15272;BME280;7737;51.578;7.268;2023-02-20T03:28:27;63419.03;;;-143.17;100.00
15272;BME280;7737;51.578;7.268;2023-02-20T03:31:59;63419.03;;;-143.17;100.00
15272;BME280;7737;51.578;7.268;2023-02-20T03:35:43;63419.03;;;-143.17;100.00
15272;BME280;7737;51.578;7.268;2023-02-20T03:39:29;63419.03;;;-143.17;100.00
15272;BME280;7737;51.578;7.268;2023-02-20T03:43:16;63419.03;;;-143.17;100.00
15272;BME280;7737;51.578;7.268;2023-02-20T03:46:48;63419.03;;;-143.17;100.00
15272;BME280;7737;51.578;7.268;2023-02-20T03:50:17;63419.03;;;-143.17;100.00
15272;BME280;7737;51.578;7.268;2023-02-20T03:54:01;63419.03;;;-143.17;100.00
15272;BME280;7737;51.578;7.268;2023-02-20T03:57:31;63419.03;;;-143.17;100.00
15272;BME280;7737;51.578;7.268;2023-02-20T04:01:00;63419.03;;;-143.17;100.00
15272;BME280;7737;51.578;7.268;2023-02-20T04:04:29;63419.03;;;-143.17;100.00
15272;BME280;7737;51.578;7.268;2023-02-20T04:07:58;63419.03;;;-143.17;100.00
15272;BME280;7737;51.578;7.268;2023-02-20T04:11:29;63419.03;;;-143.17;100.00
15272;BME280;7737;51.578;7.268;2023-02-20T04:14:58;63419.03;;;-143.17;100.00
15272;BME280;7737;51.578;7.268;2023-02-20T04:18:27;63419.03;;;-143.17;100.00
15272;BME280;7737;51.578;7.268;2023-02-20T04:21:54;63419.03;;;-143.17;100.00
15272;BME280;7737;51.578;7.268;2023-02-20T04:25:24;63419.03;;;-143.17;100.00
15272;BME280;7737;51.578;7.268;2023-02-20T04:28:58;63419.03;;;-143.17;100.00
15272;BME280;7737;51.578;7.268;2023-02-20T04:32:24;63419.03;;;-143.17;100.00
15272;BME280;7737;51.578;7.268;2023-02-20T04:35:49;63419.03;;;-143.17;100.00
15272;BME280;7737;51.578;7.268;2023-02-20T04:39:14;63419.03;;;-143.17;100.00
15272;BME280;7737;51.578;7.268;2023-02-20T04:42:39;63419.03;;;-143.17;100.00
15272;BME280;7737;51.578;7.268;2023-02-20T04:46:05;63419.03;;;-143.17;100.00
15272;BME280;7737;51.578;7.268;2023-02-20T04:49:30;63419.03;;;-143.17;100.00
15272;BME280;7737;51.578;7.268;2023-02-20T04:52:56;63419.03;;;-143.17;100.00
15272;BME280;7737;51.578;7.268;2023-02-20T04:56:21;63419.03;;;-143.17;100.00
15272;BME280;7737;51.578;7.268;2023-02-20T04:59:47;63419.03;;;-143.17;100.00
15272;BME280;7737;51.578;7.268;2023-02-20T05:03:15;63419.03;;;-143.17;100.00
15272;BME280;7737;51.578;7.268;2023-02-20T05:06:40;63419.03;;;-143.17;100.00
15272;BME280;7737;51.578;7.268;2023-02-20T05:10:05;63419.03;;;-143.17;100.00
15272;BME280;7737;51.578;7.268;2023-02-20T05:13:30;63419.03;;;-143.17;100.00
15272;BME280;7737;51.578;7.268;2023-02-20T05:16:55;63419.03;;;-143.17;100.00
15272;BME280;7737;51.578;7.268;2023-02-20T05:20:22;63419.03;;;-143.17;100.00
15272;BME280;7737;51.578;7.268;2023-02-20T05:24:07;63419.03;;;-143.17;100.00
15272;BME280;7737;51.578;7.268;2023-02-20T05:27:33;63419.03;;;-143.17;100.00
15272;BME280;7737;51.578;7.268;2023-02-20T05:30:58;63419.03;;;-143.17;100.00
15272;BME280;7737;51.578;7.268;2023-02-20T05:34:25;63419.03;;;-143.17;100.00
15272;BME280;7737;51.578;7.268;2023-02-20T05:37:50;63419.03;;;-143.17;100.00
15272;BME280;7737;51.578;7.268;2023-02-20T05:41:15;63419.03;;;-143.17;100.00
15272;BME280;7737;51.578;7.268;2023-02-20T05:44:40;63419.03;;;-143.17;100.00
15272;BME280;7737;51.578;7.268;2023-02-20T05:48:05;63419.03;;;-143.17;100.00
15272;BME280;7737;51.578;7.268;2023-02-20T05:51:32;63419.03;;;-143.17;100.00
15272;BME280;7737;51.578;7.268;2023-02-20T05:54:57;63419.03;;;-143.17;100.00
15272;BME280;7737;51.578;7.268;2023-02-20T05:58:22;63419.03;;;-143.17;100.00
15272;BME280;7737;51.578;7.268;2023-02-20T06:01:47;63419.03;;;-143.17;100.00
15272;BME280;7737;51.578;7.268;2023-02-20T06:05:15;63419.03;;;-143.17;100.00
15272;BME280;7737;51.578;7.268;2023-02-20T06:08:42;63419.03;;;-143.17;100.00
15272;BME280;7737;51.578;7.268;2023-02-20T06:12:08;63419.03;;;-143.17;100.00
15272;BME280;7737;51.578;7.268;2023-02-20T06:15:33;63419.03;;;-143.17;100.00
15272;BME280;7737;51.578;7.268;2023-02-20T06:18:58;63419.03;;;-143.17;100.00
15272;BME280;7737;51.578;7.268;2023-02-20T06:22:24;63419.03;;;-143.17;100.00
15272;BME280;7737;51.578;7.268;2023-02-20T06:25:50;63419.03;;;-143.17;100.00
15272;BME280;7737;51.578;7.268;2023-02-20T06:29:15;63419.03;;;-143.17;100.00
15272;BME280;7737;51.578;7.268;2023-02-20T06:32:40;63419.03;;;-143.17;100.00
15272;BME280;7737;51.578;7.268;2023-02-20T06:36:16;63419.03;;;-143.17;100.00
15272;BME280;7737;51.578;7.268;2023-02-20T06:39:42;63419.03;;;-143.17;100.00
15272;BME280;7737;51.578;7.268;2023-02-20T06:43:10;63419.03;;;-143.17;100.00
15272;BME280;7737;51.578;7.268;2023-02-20T06:46:35;63419.03;;;-143.17;100.00
15272;BME280;7737;51.578;7.268;2023-02-20T06:50:00;63419.03;;;-143.17;100.00
15272;BME280;7737;51.578;7.268;2023-02-20T06:53:25;63419.03;;;-143.17;100.00
15272;BME280;7737;51.578;7.268;2023-02-20T06:56:50;63419.03;;;-143.17;100.00
15272;BME280;7737;51.578;7.268;2023-02-20T07:00:17;63419.03;;;-143.17;100.00
15272;BME280;7737;51.578;7.268;2023-02-20T07:03:42;63419.03;;;-143.17;100.00
15272;BME280;7737;51.578;7.268;2023-02-20T07:07:08;63419.03;;;-143.17;100.00
15272;BME280;7737;51.578;7.268;2023-02-20T07:10:33;63419.03;;;-143.17;100.00
15272;BME280;7737;51.578;7.268;2023-02-20T07:13:59;63419.03;;;-143.17;100.00
15272;BME280;7737;51.578;7.268;2023-02-20T07:17:25;63419.03;;;-143.17;100.00
15272;BME280;7737;51.578;7.268;2023-02-20T07:20:50;63419.03;;;-143.17;100.00
15272;BME280;7737;51.578;7.268;2023-02-20T07:24:15;63419.03;;;-143.17;100.00
15272;BME280;7737;51.578;7.268;2023-02-20T07:27:41;63419.03;;;-143.17;100.00
15272;BME280;7737;51.578;7.268;2023-02-20T07:31:06;63419.03;;;-143.17;100.00
15272;BME280;7737;51.578;7.268;2023-02-20T07:34:33;63419.03;;;-143.17;100.00
15272;BME280;7737;51.578;7.268;2023-02-20T07:37:58;63419.03;;;-143.17;100.00
15272;BME280;7737;51.578;7.268;2023-02-20T07:41:23;63419.03;;;-143.17;100.00
15272;BME280;7737;51.578;7.268;2023-02-20T07:44:49;63419.03;;;-143.17;100.00
15272;BME280;7737;51.578;7.268;2023-02-20T07:48:14;63419.03;;;-143.17;100.00
15272;BME280;7737;51.578;7.268;2023-02-20T07:51:40;63419.03;;;-143.17;100.00
15272;BME280;7737;51.578;7.268;2023-02-20T07:55:05;63419.03;;;-143.17;100.00
15272;BME280;7737;51.578;7.268;2023-02-20T07:58:32;63419.03;;;-143.17;100.00
15272;BME280;7737;51.578;7.268;2023-02-20T08:01:57;63419.03;;;-143.17;100.00
15272;BME280;7737;51.578;7.268;2023-02-20T08:05:22;63419.03;;;-143.17;100.00
15272;BME280;7737;51.578;7.268;2023-02-20T08:08:49;63419.03;;;-143.17;100.00
15272;BME280;7737;51.578;7.268;2023-02-20T08:12:15;63419.03;;;-143.17;100.00
15272;BME280;7737;51.578;7.268;2023-02-20T08:15:40;63419.03;;;-143.17;100.00
15272;BME280;7737;51.578;7.268;2023-02-20T08:19:07;63419.03;;;-143.17;100.00
15272;BME280;7737;51.578;7.268;2023-02-20T08:22:32;63419.03;;;-143.17;100.00
15272;BME280;7737;51.578;7.268;2023-02-20T08:25:59;63419.03;;;-143.17;100.00
15272;BME280;7737;51.578;7.268;2023-02-20T08:29:24;63419.03;;;-143.17;100.00
15272;BME280;7737;51.578;7.268;2023-02-20T08:32:49;63419.03;;;-143.17;100.00
15272;BME280;7737;51.578;7.268;2023-02-20T08:36:14;63419.03;;;-143.17;100.00
15272;BME280;7737;51.578;7.268;2023-02-20T08:39:42;63419.03;;;-143.17;100.00
15272;BME280;7737;51.578;7.268;2023-02-20T08:43:11;63419.03;;;-143.17;100.00
15272;BME280;7737;51.578;7.268;2023-02-20T08:46:37;63419.03;;;-143.17;100.00
15272;BME280;7737;51.578;7.268;2023-02-20T08:50:02;63419.03;;;-143.17;100.00
15272;BME280;7737;51.578;7.268;2023-02-20T08:53:27;63419.03;;;-143.17;100.00
15272;BME280;7737;51.578;7.268;2023-02-20T08:56:52;63419.03;;;-143.17;100.00
15272;BME280;7737;51.578;7.268;2023-02-20T09:00:19;63419.03;;;-143.17;100.00
15272;BME280;7737;51.578;7.268;2023-02-20T09:03:44;63419.03;;;-143.17;100.00
15272;BME280;7737;51.578;7.268;2023-02-20T09:07:12;63419.03;;;-143.17;100.00
15272;BME280;7737;51.578;7.268;2023-02-20T09:10:37;63419.03;;;-143.17;100.00
15272;BME280;7737;51.578;7.268;2023-02-20T09:14:02;63419.03;;;-143.17;100.00
15272;BME280;7737;51.578;7.268;2023-02-20T09:17:29;63419.03;;;-143.17;100.00
15272;BME280;7737;51.578;7.268;2023-02-20T09:20:54;63419.03;;;-143.17;100.00
15272;BME280;7737;51.578;7.268;2023-02-20T09:24:19;63419.03;;;-143.17;100.00
15272;BME280;7737;51.578;7.268;2023-02-20T09:27:44;63419.03;;;-143.17;100.00
15272;BME280;7737;51.578;7.268;2023-02-20T09:31:12;63419.03;;;-143.17;100.00
15272;BME280;7737;51.578;7.268;2023-02-20T09:34:41;63419.03;;;-143.17;100.00
15272;BME280;7737;51.578;7.268;2023-02-20T09:38:07;63419.03;;;-143.17;100.00
15272;BME280;7737;51.578;7.268;2023-02-20T09:41:34;63419.03;;;-143.17;100.00
15272;BME280;7737;51.578;7.268;2023-02-20T09:45:05;63419.03;;;-143.17;100.00
15272;BME280;7737;51.578;7.268;2023-02-20T09:48:46;63419.03;;;-143.17;100.00
15272;BME280;7737;51.578;7.268;2023-02-20T09:52:15;63419.03;;;-143.17;100.00
15272;BME280;7737;51.578;7.268;2023-02-20T09:55:44;63419.03;;;-143.17;100.00
15272;BME280;7737;51.578;7.268;2023-02-20T09:59:16;63419.03;;;-143.17;100.00
15272;BME280;7737;51.578;7.268;2023-02-20T10:02:51;63419.03;;;-143.17;100.00
15272;BME280;7737;51.578;7.268;2023-02-20T10:06:21;63419.03;;;-143.17;100.00
15272;BME280;7737;51.578;7.268;2023-02-20T10:09:49;63419.03;;;-143.17;100.00
15272;BME280;7737;51.578;7.268;2023-02-20T10:17:07;63419.03;;;-143.17;100.00
15272;BME280;7737;51.578;7.268;2023-02-20T10:20:41;63419.03;;;-143.17;100.00
15272;BME280;7737;51.578;7.268;2023-02-20T10:24:17;63419.03;;;-143.17;100.00
15272;BME280;7737;51.578;7.268;2023-02-20T10:27:51;63419.03;;;-143.17;100.00
15272;BME280;7737;51.578;7.268;2023-02-20T10:31:25;63419.03;;;-143.17;100.00
15272;BME280;7737;51.578;7.268;2023-02-20T10:34:57;63419.03;;;-143.17;100.00
15272;BME280;7737;51.578;7.268;2023-02-20T10:38:33;63419.03;;;-143.17;100.00
15272;BME280;7737;51.578;7.268;2023-02-20T10:42:06;63419.03;;;-143.17;100.00
15272;BME280;7737;51.578;7.268;2023-02-20T10:45:38;63419.03;;;-143.17;100.00
15272;BME280;7737;51.578;7.268;2023-02-20T10:49:08;63419.03;;;-143.17;100.00
15272;BME280;7737;51.578;7.268;2023-02-20T10:52:40;63419.03;;;-143.17;100.00
15272;BME280;7737;51.578;7.268;2023-02-20T10:56:13;63419.03;;;-143.17;100.00
15272;BME280;7737;51.578;7.268;2023-02-20T10:59:46;63419.03;;;-143.17;100.00
15272;BME280;7737;51.578;7.268;2023-02-20T11:03:16;63419.03;;;-143.17;100.00
15272;BME280;7737;51.578;7.268;2023-02-20T11:06:44;63419.03;;;-143.17;100.00
15272;BME280;7737;51.578;7.268;2023-02-20T11:10:11;63419.03;;;-143.17;100.00
15272;BME280;7737;51.578;7.268;2023-02-20T11:13:39;63419.03;;;-143.17;100.00
15272;BME280;7737;51.578;7.268;2023-02-20T11:17:15;63419.03;;;-143.17;100.00
15272;BME280;7737;51.578;7.268;2023-02-20T11:20:43;63419.03;;;-143.17;100.00
15272;BME280;7737;51.578;7.268;2023-02-20T11:24:32;63419.03;;;-143.17;100.00
15272;BME280;7737;51.578;7.268;2023-02-20T11:28:06;63419.03;;;-143.17;100.00
15272;BME280;7737;51.578;7.268;2023-02-20T11:31:35;63419.03;;;-143.17;100.00
15272;BME280;7737;51.578;7.268;2023-02-20T11:34:13;101960.03;;;6.57;100.00
15272;BME280;7737;51.578;7.268;2023-02-20T11:37:40;63419.03;;;-143.17;100.00
15272;BME280;7737;51.578;7.268;2023-02-20T11:41:22;63419.03;;;-143.17;100.00
15272;BME280;7737;51.578;7.268;2023-02-20T11:45:10;63419.03;;;-143.17;100.00
15272;BME280;7737;51.578;7.268;2023-02-20T11:48:35;63419.03;;;-143.17;100.00
15272;BME280;7737;51.578;7.268;2023-02-20T11:52:08;63419.03;;;-143.17;100.00
15272;BME280;7737;51.578;7.268;2023-02-20T11:55:35;63419.03;;;-143.17;100.00
15272;BME280;7737;51.578;7.268;2023-02-20T11:59:12;63419.03;;;-143.17;100.00
15272;BME280;7737;51.578;7.268;2023-02-20T12:02:51;63419.03;;;-143.17;100.00
15272;BME280;7737;51.578;7.268;2023-02-20T12:06:34;63419.03;;;-143.17;100.00
15272;BME280;7737;51.578;7.268;2023-02-20T12:10:09;63419.03;;;-143.17;100.00
15272;BME280;7737;51.578;7.268;2023-02-20T12:13:40;63419.03;;;-143.17;100.00
15272;BME280;7737;51.578;7.268;2023-02-20T12:17:33;63419.03;;;-143.17;100.00
15272;BME280;7737;51.578;7.268;2023-02-20T12:25:06;63419.03;;;-143.17;100.00
15272;BME280;7737;51.578;7.268;2023-02-20T12:28:45;63419.03;;;-143.17;100.00
15272;BME280;7737;51.578;7.268;2023-02-20T12:32:26;63419.03;;;-143.17;100.00
15272;BME280;7737;51.578;7.268;2023-02-20T12:36:16;63419.03;;;-143.17;100.00
15272;BME280;7737;51.578;7.268;2023-02-20T12:39:48;63419.03;;;-143.17;100.00
15272;BME280;7737;51.578;7.268;2023-02-20T12:43:26;63419.03;;;-143.17;100.00
15272;BME280;7737;51.578;7.268;2023-02-20T12:47:04;63419.03;;;-143.17;100.00
15272;BME280;7737;51.578;7.268;2023-02-20T12:50:54;63419.03;;;-143.17;100.00
15272;BME280;7737;51.578;7.268;2023-02-20T12:54:36;63419.03;;;-143.17;100.00
15272;BME280;7737;51.578;7.268;2023-02-20T12:58:14;63419.03;;;-143.17;100.00
15272;BME280;7737;51.578;7.268;2023-02-20T13:01:44;63419.03;;;-143.17;100.00
15272;BME280;7737;51.578;7.268;2023-02-20T13:05:18;63419.03;;;-143.17;100.00
15272;BME280;7737;51.578;7.268;2023-02-20T13:08:53;63419.03;;;-143.17;100.00
15272;BME280;7737;51.578;7.268;2023-02-20T13:12:21;63419.03;;;-143.17;100.00
15272;BME280;7737;51.578;7.268;2023-02-20T13:15:56;63419.03;;;-143.17;100.00
15272;BME280;7737;51.578;7.268;2023-02-20T13:19:30;63419.03;;;-143.17;100.00
15272;BME280;7737;51.578;7.268;2023-02-20T13:22:59;63419.03;;;-143.17;100.00
15272;BME280;7737;51.578;7.268;2023-02-20T13:26:47;63419.03;;;-143.17;100.00
15272;BME280;7737;51.578;7.268;2023-02-20T13:30:17;63419.03;;;-143.17;100.00
15272;BME280;7737;51.578;7.268;2023-02-20T13:33:45;63419.03;;;-143.17;100.00
15272;BME280;7737;51.578;7.268;2023-02-20T13:41:37;63419.03;;;-143.17;100.00
15272;BME280;7737;51.578;7.268;2023-02-20T13:45:37;63419.03;;;-143.17;100.00
15272;BME280;7737;51.578;7.268;2023-02-20T13:49:52;63419.03;;;-143.17;100.00
15272;BME280;7737;51.578;7.268;2023-02-20T13:53:29;63419.03;;;-143.17;100.00
15272;BME280;7737;51.578;7.268;2023-02-20T13:56:58;63419.03;;;-143.17;100.00
15272;BME280;7737;51.578;7.268;2023-02-20T14:00:40;63419.03;;;-143.17;100.00
15272;BME280;7737;51.578;7.268;2023-02-20T14:04:10;63419.03;;;-143.17;100.00
15272;BME280;7737;51.578;7.268;2023-02-20T14:07:46;63419.03;;;-143.17;100.00
15272;BME280;7737;51.578;7.268;2023-02-20T14:11:23;63419.03;;;-143.17;100.00
15272;BME280;7737;51.578;7.268;2023-02-20T14:14:51;63419.03;;;-143.17;100.00
15272;BME280;7737;51.578;7.268;2023-02-20T14:18:17;63419.03;;;-143.17;100.00
15272;BME280;7737;51.578;7.268;2023-02-20T14:21:45;63419.03;;;-143.17;100.00
15272;BME280;7737;51.578;7.268;2023-02-20T14:28:51;63419.03;;;-143.17;100.00
15272;BME280;7737;51.578;7.268;2023-02-20T14:32:18;63419.03;;;-143.17;100.00
15272;BME280;7737;51.578;7.268;2023-02-20T14:39:42;63419.03;;;-143.17;100.00
15272;BME280;7737;51.578;7.268;2023-02-20T14:43:14;63419.03;;;-143.17;100.00
15272;BME280;7737;51.578;7.268;2023-02-20T14:46:41;63419.03;;;-143.17;100.00
15272;BME280;7737;51.578;7.268;2023-02-20T14:50:10;63419.03;;;-143.17;100.00
15272;BME280;7737;51.578;7.268;2023-02-20T14:53:40;63419.03;;;-143.17;100.00
15272;BME280;7737;51.578;7.268;2023-02-20T14:57:11;63419.03;;;-143.17;100.00
15272;BME280;7737;51.578;7.268;2023-02-20T15:00:37;63419.03;;;-143.17;100.00
15272;BME280;7737;51.578;7.268;2023-02-20T15:04:06;63419.03;;;-143.17;100.00
15272;BME280;7737;51.578;7.268;2023-02-20T15:07:36;63419.03;;;-143.17;100.00
15272;BME280;7737;51.578;7.268;2023-02-20T15:11:23;63419.03;;;-143.17;100.00
15272;BME280;7737;51.578;7.268;2023-02-20T15:14:52;63419.03;;;-143.17;100.00
15272;BME280;7737;51.578;7.268;2023-02-20T15:18:30;63419.03;;;-143.17;100.00
15272;BME280;7737;51.578;7.268;2023-02-20T15:21:56;63419.03;;;-143.17;100.00
15272;BME280;7737;51.578;7.268;2023-02-20T15:25:33;63419.03;;;-143.17;100.00
15272;BME280;7737;51.578;7.268;2023-02-20T15:29:09;63419.03;;;-143.17;100.00
15272;BME280;7737;51.578;7.268;2023-02-20T15:32:35;63419.03;;;-143.17;100.00
15272;BME280;7737;51.578;7.268;2023-02-20T15:36:02;63419.03;;;-143.17;100.00
15272;BME280;7737;51.578;7.268;2023-02-20T15:39:28;63419.03;;;-143.17;100.00
15272;BME280;7737;51.578;7.268;2023-02-20T15:42:55;63419.03;;;-143.17;100.00
15272;BME280;7737;51.578;7.268;2023-02-20T15:46:20;63419.03;;;-143.17;100.00
15272;BME280;7737;51.578;7.268;2023-02-20T15:49:45;63419.03;;;-143.17;100.00
15272;BME280;7737;51.578;7.268;2023-02-20T15:53:13;63419.03;;;-143.17;100.00
15272;BME280;7737;51.578;7.268;2023-02-20T15:56:39;63419.03;;;-143.17;100.00
15272;BME280;7737;51.578;7.268;2023-02-20T16:00:09;63419.03;;;-143.17;100.00
15272;BME280;7737;51.578;7.268;2023-02-20T16:03:37;63419.03;;;-143.17;100.00
15272;BME280;7737;51.578;7.268;2023-02-20T16:07:02;63419.03;;;-143.17;100.00
15272;BME280;7737;51.578;7.268;2023-02-20T16:10:27;63419.03;;;-143.17;100.00
15272;BME280;7737;51.578;7.268;2023-02-20T16:13:55;63419.03;;;-143.17;100.00
15272;BME280;7737;51.578;7.268;2023-02-20T16:17:28;63419.03;;;-143.17;100.00
15272;BME280;7737;51.578;7.268;2023-02-20T16:20:56;63419.03;;;-143.17;100.00
15272;BME280;7737;51.578;7.268;2023-02-20T16:24:21;63419.03;;;-143.17;100.00
15272;BME280;7737;51.578;7.268;2023-02-20T16:27:46;63419.03;;;-143.17;100.00
15272;BME280;7737;51.578;7.268;2023-02-20T16:31:16;63419.03;;;-143.17;100.00
15272;BME280;7737;51.578;7.268;2023-02-20T16:34:44;63419.03;;;-143.17;100.00
15272;BME280;7737;51.578;7.268;2023-02-20T16:38:10;63419.03;;;-143.17;100.00
15272;BME280;7737;51.578;7.268;2023-02-20T16:41:35;63419.03;;;-143.17;100.00
15272;BME280;7737;51.578;7.268;2023-02-20T16:45:05;63419.03;;;-143.17;100.00
15272;BME280;7737;51.578;7.268;2023-02-20T16:48:30;63419.03;;;-143.17;100.00
15272;BME280;7737;51.578;7.268;2023-02-20T16:51:57;63419.03;;;-143.17;100.00
15272;BME280;7737;51.578;7.268;2023-02-20T16:55:25;63419.03;;;-143.17;100.00
15272;BME280;7737;51.578;7.268;2023-02-20T16:58:51;63419.03;;;-143.17;100.00
15272;BME280;7737;51.578;7.268;2023-02-20T17:02:17;63419.03;;;-143.17;100.00
15272;BME280;7737;51.578;7.268;2023-02-20T17:04:44;101569.03;;;8.78;100.00
15272;BME280;7737;51.578;7.268;2023-02-20T17:07:17;101569.03;;;8.78;100.00
15272;BME280;7737;51.578;7.268;2023-02-20T17:09:44;101583.56;;;8.65;100.00
15272;BME280;7737;51.578;7.268;2023-02-20T17:13:10;63419.03;;;-143.17;100.00
15272;BME280;7737;51.578;7.268;2023-02-20T17:16:35;63419.03;;;-143.17;100.00
15272;BME280;7737;51.578;7.268;2023-02-20T17:20:01;63419.03;;;-143.17;100.00
15272;BME280;7737;51.578;7.268;2023-02-20T17:23:27;63419.03;;;-143.17;100.00
15272;BME280;7737;51.578;7.268;2023-02-20T17:26:53;63419.03;;;-143.17;100.00
15272;BME280;7737;51.578;7.268;2023-02-20T17:29:19;101576.34;;;8.70;100.00
15272;BME280;7737;51.578;7.268;2023-02-20T17:31:46;101586.97;;;8.69;100.00
15272;BME280;7737;51.578;7.268;2023-02-20T17:34:12;101587.03;;;8.67;100.00
15272;BME280;7737;51.578;7.268;2023-02-20T17:36:39;101588.78;;;8.67;100.00
15272;BME280;7737;51.578;7.268;2023-02-20T17:39:14;101590.56;;;8.66;100.00
15272;BME280;7737;51.578;7.268;2023-02-20T17:41:40;101586.22;;;8.65;100.00
15272;BME280;7737;51.578;7.268;2023-02-20T17:44:39;101586.22;;;8.65;100.00
15272;BME280;7737;51.578;7.268;2023-02-20T17:48:05;63419.03;;;-143.17;100.00
15272;BME280;7737;51.578;7.268;2023-02-20T17:51:31;63419.03;;;-143.17;100.00
15272;BME280;7737;51.578;7.268;2023-02-20T17:54:57;63419.03;;;-143.17;100.00
15272;BME280;7737;51.578;7.268;2023-02-20T17:57:24;101594.84;;;8.72;100.00
15272;BME280;7737;51.578;7.268;2023-02-20T17:59:52;101586.94;;;8.70;100.00
15272;BME280;7737;51.578;7.268;2023-02-20T18:02:19;101595.78;;;8.69;100.00
15272;BME280;7737;51.578;7.268;2023-02-20T18:04:45;101593.13;;;8.71;100.00
15272;BME280;7737;51.578;7.268;2023-02-20T18:07:13;101588.66;;;8.71;100.00
15272;BME280;7737;51.578;7.268;2023-02-20T18:09:41;101579.88;;;8.69;100.00
15272;BME280;7737;51.578;7.268;2023-02-20T18:12:09;101595.78;;;8.69;100.00